Time;durP1;ratioP1;P1;durP2;ratioP2;P2;SDS_P1;SDS_P2;PMS_P1;PMS_P2;Temp;Humidity;BMP_temperature;BMP_pressure;BME280_temperature;BME280_humidity;BME280_pressure;Samples;Min_cycle;Max_cycle;Signal;HPM_P1;HPM_P2
2021/12/13 00:01:50;;;;;;;14.23;4.70;;;;;;;16.56;58.51;102516.94;5087575;28;20028;-65
2021/12/13 00:04:24;;;;;;;14.65;4.90;;;;;;;16.24;59.30;102524.94;5086372;28;20044;-65
2021/12/13 00:07:07;;;;;;;12.25;4.47;;;;;;;16.05;59.86;102527.72;5083221;28;20077;-67
2021/12/13 00:09:38;;;;;;;13.20;4.95;;;;;;;15.93;59.91;102524.56;5080712;28;20016;-64
2021/12/13 00:12:06;;;;;;;16.30;5.10;;;;;;;16.42;59.16;102525.22;5089509;28;20055;-63
2021/12/13 00:14:37;;;;;;;16.48;5.22;;;;;;;16.06;59.70;102521.03;5081231;28;20036;-63
2021/12/13 00:17:15;;;;;;;11.00;4.18;;;;;;;15.89;60.32;102523.50;5084641;28;20108;-63
2021/12/13 00:19:49;;;;;;;12.38;4.18;;;;;;;16.19;59.38;102521.41;5080223;28;20024;-64
2021/12/13 00:22:20;;;;;;;10.88;3.80;;;;;;;15.45;61.42;102519.94;5077085;28;20075;-64
2021/12/13 00:24:47;;;;;;;14.23;4.10;;;;;;;15.71;60.57;102525.94;5084687;28;20088;-64
2021/12/13 00:27:16;;;;;;;9.93;3.50;;;;;;;15.48;61.20;102524.03;5072501;28;20025;-64
2021/12/13 00:30:00;;;;;;;13.52;3.75;;;;;;;15.75;59.81;102524.22;5080893;28;20048;-65
2021/12/13 00:33:07;;;;;;;8.85;3.63;;;;;;;15.90;59.75;102527.94;5082956;28;20025;-63
2021/12/13 00:35:40;;;;;;;;;;;;;;;16.06;59.14;102528.53;5071349;28;20029;-63
2021/12/13 00:38:10;;;;;;;9.75;3.22;;;;;;;15.59;59.77;102522.81;5079461;28;20250;-64
2021/12/13 00:40:42;;;;;;;9.30;3.50;;;;;;;15.76;59.59;102522.28;5086008;28;20046;-65
2021/12/13 00:43:25;;;;;;;7.38;2.85;;;;;;;16.05;58.86;102522.19;5083328;28;20031;-65
2021/12/13 00:46:00;;;;;;;6.68;2.60;;;;;;;16.57;56.92;102526.88;5078435;28;20033;-65
2021/12/13 00:48:30;;;;;;;7.60;2.55;;;;;;;15.69;59.14;102525.41;5071703;28;20025;-64
2021/12/13 00:51:05;;;;;;;9.18;2.92;;;;;;;16.00;58.43;102532.50;5072511;28;20036;-66
2021/12/13 00:53:38;;;;;;;5.30;2.30;;;;;;;16.25;57.42;102531.28;5072496;28;20040;-63
2021/12/13 00:56:41;;;;;;;9.85;2.78;;;;;;;16.11;58.24;102532.06;5072076;28;20028;-64
2021/12/13 00:59:09;;;;;;;5.22;2.20;;;;;;;15.57;59.34;102533.31;5071857;28;20029;-64
2021/12/13 01:01:35;;;;;;;10.48;2.70;;;;;;;16.04;58.18;102531.59;5071334;28;20024;-65
2021/12/13 01:04:06;;;;;;;6.67;2.20;;;;;;;16.03;58.12;102542.94;5054707;28;20033;-65
2021/12/13 01:06:50;;;;;;;7.43;2.03;;;;;;;16.27;57.04;102540.09;5072040;28;20024;-67
2021/12/13 01:10:13;;;;;;;6.15;2.22;;;;;;;15.72;58.79;102535.88;5071636;28;20025;-62
2021/12/13 01:12:39;;;;;;;9.07;1.95;;;;;;;16.07;57.54;102541.25;5070947;28;20033;-66
2021/12/13 01:15:14;;;;;;;6.80;2.38;;;;;;;16.06;57.66;102550.66;5037678;28;20092;-63
2021/12/13 01:20:33;;;;;;;3.88;2.10;;;;;;;16.42;56.12;102555.66;5071597;28;20037;-63
2021/12/13 01:23:12;;;;;;;7.07;2.25;;;;;;;15.73;57.79;102558.81;5071565;28;20083;-63
2021/12/13 01:26:01;;;;;;;5.35;2.30;;;;;;;15.62;58.49;102549.84;5070932;28;20064;-63
2021/12/13 01:28:40;;;;;;;6.90;2.47;;;;;;;15.78;58.16;102545.78;5070342;28;20088;-66
2021/12/13 01:31:13;;;;;;;5.10;2.25;;;;;;;16.04;57.28;102553.72;5071705;28;20029;-65
2021/12/13 01:33:43;;;;;;;10.38;2.83;;;;;;;15.78;57.21;102559.63;5071989;28;20053;-63
2021/12/13 01:36:13;;;;;;;4.45;2.47;;;;;;;16.21;56.63;102552.38;5070454;28;20032;-62
2021/12/13 01:38:45;;;;;;;7.45;2.25;;;;;;;15.48;58.22;102554.41;5071499;28;20055;-63
2021/12/13 01:41:16;;;;;;;8.38;2.70;;;;;;;15.85;57.58;102552.91;5071238;28;20021;-65
2021/12/13 01:43:50;;;;;;;6.68;2.33;;;;;;;15.68;58.30;102559.69;5070640;28;20021;-65
2021/12/13 01:46:19;;;;;;;5.00;2.10;;;;;;;15.24;59.51;102567.13;5070933;28;20039;-63
2021/12/13 01:48:46;;;;;;;5.07;2.40;;;;;;;15.36;59.42;102561.19;5071465;28;20436;-62
2021/12/13 01:51:21;;;;;;;6.25;2.50;;;;;;;15.28;59.27;102559.06;5070136;28;20045;-65
2021/12/13 01:53:51;;;;;;;4.50;2.55;;;;;;;15.42;59.20;102576.59;5071315;28;20025;-62
2021/12/13 02:02:34;;;;;;;8.52;3.58;;;;;;;14.79;60.68;102560.94;5071537;28;20096;-63
2021/12/13 02:04:59;;;;;;;9.90;4.70;;;;;;;14.67;61.48;102561.34;5063784;28;20041;-65
2021/12/13 02:07:34;;;;;;;9.60;4.95;;;;;;;15.62;59.08;102562.84;5069834;28;20097;-63
2021/12/13 02:10:00;;;;;;;12.13;5.85;;;;;;;15.58;58.93;102560.66;5071355;28;20052;-66
2021/12/13 02:12:29;;;;;;;10.53;6.23;;;;;;;15.81;57.84;102560.94;5071114;28;20040;-65
2021/12/13 02:17:44;;;;;;;14.70;7.63;;;;;;;14.85;61.19;102564.50;5071262;28;20043;-62
2021/12/13 02:20:15;;;;;;;16.50;7.05;;;;;;;15.45;59.24;102563.34;5071298;28;20040;-65
2021/12/13 02:22:48;;;;;;;15.52;8.20;;;;;;;15.20;60.29;102560.53;5070903;28;20072;-63
2021/12/13 02:25:55;;;;;;;16.70;8.63;;;;;;;15.81;58.31;102571.19;5070616;28;20029;-62
2021/12/13 02:28:24;;;;;;;14.52;7.75;;;;;;;15.72;58.08;102573.78;4996469;28;20057;-65
2021/12/13 02:30:55;;;;;;;15.23;8.30;;;;;;;15.81;58.11;102571.19;5013148;28;20093;-66
2021/12/13 02:33:25;;;;;;;16.20;9.15;;;;;;;15.57;58.66;102572.00;5051480;28;20036;-64
2021/12/13 02:36:13;;;;;;;18.20;9.18;;;;;;;15.27;59.32;102571.25;5070019;28;20029;-65
2021/12/13 02:38:40;;;;;;;15.38;9.32;;;;;;;15.84;57.77;102576.13;5070034;28;20041;-62
2021/12/13 02:41:08;;;;;;;18.00;9.05;;;;;;;15.47;58.76;102575.72;5073890;28;20025;-65
2021/12/13 02:43:42;;;;;;;17.15;9.80;;;;;;;15.86;57.72;102579.41;5074413;28;20025;-63
2021/12/13 02:46:07;;;;;;;16.92;10.00;;;;;;;15.52;58.49;102583.13;5074590;28;20033;-63
2021/12/13 02:48:39;;;;;;;16.90;10.02;;;;;;;15.51;58.62;102570.41;5073405;28;20025;-64
2021/12/13 02:51:10;;;;;;;18.42;10.85;;;;;;;15.38;59.21;102574.72;5074543;28;20076;-61
2021/12/13 02:53:50;;;;;;;17.08;10.35;;;;;;;15.62;58.50;102566.44;5074190;28;20032;-65
2021/12/13 02:56:20;;;;;;;19.25;10.65;;;;;;;15.20;59.74;102568.00;5074328;28;20029;-63
2021/12/13 02:58:47;;;;;;;16.92;10.07;;;;;;;15.66;58.45;102561.94;5074323;28;20021;-64
2021/12/13 03:01:48;;;;;;;17.05;10.38;;;;;;;15.52;58.96;102567.34;5073524;28;20052;-63
2021/12/13 03:04:18;;;;;;;20.15;11.35;;;;;;;16.15;57.27;102565.47;5051977;28;20071;-62
2021/12/13 03:06:50;;;;;;;18.20;11.02;;;;;;;15.31;59.46;102572.31;5074409;28;20024;-62
2021/12/13 03:09:20;;;;;;;22.20;11.40;;;;;;;15.59;58.52;102561.50;5074191;28;20047;-62
2021/12/13 03:11:47;;;;;;;19.75;10.48;;;;;;;15.85;57.42;102558.44;5073302;28;20036;-64
2021/12/13 03:14:23;;;;;;;17.33;9.82;;;;;;;15.46;59.11;102559.44;5073245;28;20036;-64
2021/12/13 03:17:13;;;;;;;16.75;10.60;;;;;;;15.46;58.84;102556.66;5074004;28;20573;-62
2021/12/13 03:19:38;;;;;;;17.88;10.65;;;;;;;15.27;59.01;102557.44;5072794;28;20127;-63
2021/12/13 03:22:29;;;;;;;18.10;10.02;;;;;;;15.76;57.78;102558.22;5074016;28;20060;-63
2021/12/13 03:25:13;;;;;;;16.10;9.95;;;;;;;15.70;58.27;102559.41;5073223;28;20028;-64
2021/12/13 03:27:56;;;;;;;16.15;9.80;;;;;;;15.26;59.55;102563.28;5073286;28;20040;-64
2021/12/13 03:30:44;;;;;;;15.57;9.68;;;;;;;15.32;59.01;102565.69;5072540;28;20055;-63
2021/12/13 03:33:13;;;;;;;18.13;10.38;;;;;;;15.39;58.49;102566.13;5054442;28;20048;-62
2021/12/13 03:35:40;;;;;;;17.77;9.93;;;;;;;14.98;59.52;102566.56;5073329;28;20059;-63
2021/12/13 03:38:19;;;;;;;14.55;9.57;;;;;;;15.70;57.70;102563.00;5072693;28;20025;-65
2021/12/13 03:40:47;;;;;;;15.57;9.63;;;;;;;14.98;59.85;102565.75;5072188;28;20020;-63
2021/12/13 03:43:24;;;;;;;16.50;9.45;;;;;;;15.14;59.68;102560.91;5072441;28;20029;-63
2021/12/13 03:45:54;;;;;;;15.98;10.30;;;;;;;15.44;58.50;102547.84;5073533;28;20031;-64
2021/12/13 03:48:26;;;;;;;13.60;9.38;;;;;;;15.36;58.91;102550.13;5073525;28;20049;-65
2021/12/13 03:50:55;;;;;;;14.50;9.25;;;;;;;15.27;58.57;102557.44;5072378;28;20029;-65
2021/12/13 03:53:23;;;;;;;14.23;9.15;;;;;;;15.42;58.15;102554.50;5073366;28;20029;-62
2021/12/13 03:55:54;;;;;;;15.07;8.95;;;;;;;15.39;58.24;102555.06;5073311;28;20032;-63
2021/12/13 03:58:22;;;;;;;17.85;8.52;;;;;;;15.52;57.98;102547.19;5073015;28;20032;-63
2021/12/13 04:00:57;;;;;;;14.60;9.52;;;;;;;15.46;58.33;102562.19;5072902;28;20029;-62
2021/12/13 04:03:24;;;;;;;13.48;8.02;;;;;;;15.33;58.15;102567.31;5073516;28;20028;-65
2021/12/13 04:05:51;;;;;;;13.82;7.88;;;;;;;14.89;59.65;102557.28;5072891;28;20032;-62
2021/12/13 04:08:19;;;;;;;14.65;7.78;;;;;;;15.42;57.93;102548.16;5071920;28;20021;-62
2021/12/13 04:10:50;;;;;;;13.73;7.75;;;;;;;15.09;58.71;102547.97;5072792;28;20043;-63
2021/12/13 04:13:21;;;;;;;12.50;7.22;;;;;;;15.18;58.75;102543.44;5072973;28;20056;-62
2021/12/13 04:16:03;;;;;;;13.75;7.60;;;;;;;15.44;57.29;102540.38;5072707;28;20864;-63
2021/12/13 04:21:12;;;;;;;11.25;7.68;;;;;;;15.23;58.00;102551.66;5072733;28;20045;-64
2021/12/13 04:23:38;;;;;;;17.17;7.15;;;;;;;14.87;59.02;102548.44;5072597;28;20734;-63
2021/12/13 04:26:07;;;;;;;11.65;7.22;;;;;;;14.88;58.84;102558.41;5071948;28;20036;-62
2021/12/13 04:28:43;;;;;;;9.57;7.13;;;;;;;15.02;58.71;102555.78;5072186;28;20041;-66
2021/12/13 04:31:12;;;;;;;11.48;6.65;;;;;;;14.98;58.57;102547.22;5071495;28;20051;-63
2021/12/13 04:33:48;;;;;;;10.27;6.85;;;;;;;15.58;56.87;102543.25;5071316;28;20025;-64
2021/12/13 04:36:18;;;;;;;11.33;6.40;;;;;;;15.44;56.95;102550.63;5072752;28;20032;-61
2021/12/13 04:38:51;;;;;;;11.63;6.90;;;;;;;15.17;57.08;102550.06;5072095;28;20025;-63
2021/12/13 04:41:26;;;;;;;9.80;6.50;;;;;;;15.00;57.82;102563.50;5072462;28;20025;-62
2021/12/13 04:44:09;;;;;;;11.60;6.05;;;;;;;14.66;58.76;102565.19;5072065;28;20032;-64
2021/12/13 04:46:37;;;;;;;13.98;6.72;;;;;;;15.37;56.82;102560.09;5071996;28;20116;-62
2021/12/13 04:49:07;;;;;;;;;;;;;;;15.28;57.44;102561.03;5072814;28;20055;-62
2021/12/13 04:51:47;;;;;;;11.25;6.30;;;;;;;15.78;55.77;102556.84;5070789;28;19920;-63
2021/12/13 04:54:15;;;;;;;11.38;5.82;;;;;;;15.40;56.69;102555.91;5072092;28;20025;-65
2021/12/13 04:56:42;;;;;;;10.20;5.97;;;;;;;14.21;59.47;102547.06;5071735;28;20080;-61
2021/12/13 04:59:09;;;;;;;11.35;6.25;;;;;;;15.31;57.08;102557.69;5072030;28;20032;-64
2021/12/13 05:01:35;;;;;;;11.52;6.18;;;;;;;15.08;57.09;102553.78;5070338;28;20059;-62
2021/12/13 05:04:04;;;;;;;10.43;6.75;;;;;;;14.84;57.42;102552.63;5071822;28;20053;-63
2021/12/13 05:06:36;;;;;;;9.65;5.75;;;;;;;14.82;57.34;102563.13;5070616;28;20083;-62
2021/12/13 05:09:06;;;;;;;9.75;5.95;;;;;;;15.02;56.29;102553.84;5071891;28;20029;-61
2021/12/13 05:11:35;;;;;;;10.65;6.47;;;;;;;14.85;57.80;102558.97;5071855;28;20088;-62
2021/12/13 05:14:02;;;;;;;9.15;6.00;;;;;;;14.93;57.56;102568.56;5070684;28;20029;-62
2021/12/13 05:16:50;;;;;;;8.00;5.82;;;;;;;14.77;58.34;102560.41;5072060;28;20029;-62
2021/12/13 05:19:28;;;;;;;10.20;6.00;;;;;;;14.93;57.00;102569.38;5070648;28;20021;-62
2021/12/13 05:21:57;;;;;;;12.98;6.15;;;;;;;14.66;58.29;102580.94;5071395;28;20375;-62
2021/12/13 05:24:27;;;;;;;11.82;5.78;;;;;;;15.09;56.38;102578.34;5070746;28;20025;-61
2021/12/13 05:26:55;;;;;;;12.40;6.13;;;;;;;15.11;57.01;102572.53;5071144;28;20055;-62
2021/12/13 05:29:30;;;;;;;12.40;6.32;;;;;;;14.37;58.49;102573.41;5071390;28;20020;-62
2021/12/13 05:32:07;;;;;;;11.88;6.15;;;;;;;14.78;57.53;102572.28;5070946;28;20959;-62
2021/12/13 05:34:42;;;;;;;9.63;5.55;;;;;;;15.02;57.25;102562.13;5070473;28;20016;-63
2021/12/13 05:37:09;;;;;;;9.65;6.28;;;;;;;15.11;56.58;102572.53;5071358;28;20050;-62
2021/12/13 05:39:36;;;;;;;8.90;5.60;;;;;;;14.63;57.86;102565.78;5071338;28;20025;-63
2021/12/13 05:42:10;;;;;;;;;;;;;;;15.20;56.40;102565.25;5070759;28;20052;-65
2021/12/13 05:44:42;;;;;;;11.23;5.88;;;;;;;14.91;56.97;102557.81;5070325;28;19934;-62
2021/12/13 05:47:23;;;;;;;13.50;5.75;;;;;;;15.31;56.29;102566.78;5071381;28;20080;-62
2021/12/13 05:49:50;;;;;;;9.15;5.75;;;;;;;14.99;56.43;102562.69;5070819;28;20089;-64
2021/12/13 05:52:22;;;;;;;;;;;;;;;15.17;55.56;102565.84;5070492;28;20036;-64
2021/12/13 05:55:02;;;;;;;12.23;5.95;;;;;;;14.85;56.79;102568.06;5071035;28;20419;-65
2021/12/13 05:57:34;;;;;;;11.05;5.90;;;;;;;14.52;57.42;102575.22;5070149;28;20024;-60
2021/12/13 06:00:08;;;;;;;12.55;5.97;;;;;;;14.92;57.07;102578.81;5069680;28;20066;-65
2021/12/13 06:02:53;;;;;;;10.18;5.80;;;;;;;14.84;57.06;102576.63;5071118;28;20035;-62
2021/12/13 06:05:25;;;;;;;11.55;5.80;;;;;;;14.53;57.63;102582.41;5071024;28;20769;-63
2021/12/13 06:07:57;;;;;;;12.02;6.40;;;;;;;14.86;56.96;102575.25;5069604;28;20017;-63
2021/12/13 06:10:26;;;;;;;11.15;6.18;;;;;;;15.31;55.69;102568.72;5071205;28;20089;-64
2021/12/13 06:12:55;;;;;;;12.23;6.32;;;;;;;14.97;56.45;102564.94;5070696;28;20099;-61
2021/12/13 06:15:33;;;;;;;11.13;6.70;;;;;;;14.84;57.40;102571.13;5073894;28;20029;-63
2021/12/13 06:18:12;;;;;;;13.45;6.82;;;;;;;14.70;57.75;102571.00;5073504;28;20032;-61
2021/12/13 06:20:47;;;;;;;11.77;7.00;;;;;;;14.97;56.39;102575.97;5073849;28;20025;-66
2021/12/13 06:23:32;;;;;;;14.48;7.63;;;;;;;15.09;56.16;102583.88;5075001;28;20025;-64
2021/12/13 06:26:08;;;;;;;12.70;7.60;;;;;;;14.96;57.09;102579.84;5074665;28;20050;-62
2021/12/13 06:28:42;;;;;;;15.82;8.00;;;;;;;14.55;58.19;102584.88;5074942;28;20795;-61
2021/12/13 06:31:12;;;;;;;12.90;7.90;;;;;;;13.88;60.22;102593.56;5073126;28;20083;-62
2021/12/13 06:34:05;;;;;;;14.35;8.32;;;;;;;15.04;56.30;102587.50;5074846;28;20091;-65
2021/12/13 06:36:40;;;;;;;14.57;8.70;;;;;;;14.82;57.09;102579.69;5072274;28;20067;-62
2021/12/13 06:39:11;;;;;;;14.77;9.07;;;;;;;14.82;57.21;102590.72;5074196;28;20029;-64
2021/12/13 06:41:43;;;;;;;16.50;9.55;;;;;;;14.92;57.59;102578.81;5074422;28;20038;-63
2021/12/13 06:44:29;;;;;;;17.13;10.50;;;;;;;15.14;57.25;102589.34;5074119;28;20036;-62
2021/12/13 06:47:01;;;;;;;17.15;10.13;;;;;;;14.69;57.93;102581.19;5073648;28;20083;-63
2021/12/13 06:49:42;;;;;;;18.20;10.05;;;;;;;14.49;58.89;102589.59;5074363;28;20033;-61
2021/12/13 06:52:08;;;;;;;19.65;10.77;;;;;;;14.85;57.98;102589.34;5073836;28;20020;-64
2021/12/13 06:54:33;;;;;;;20.38;10.95;;;;;;;14.52;58.47;102591.78;5074249;28;20032;-63
2021/12/13 06:57:03;;;;;;;21.50;11.45;;;;;;;14.55;57.94;102591.22;5072889;28;20221;-61
2021/12/13 06:59:31;;;;;;;21.50;10.98;;;;;;;15.52;55.11;102591.41;5073018;28;20043;-63
2021/12/13 07:02:11;;;;;;;21.42;12.02;;;;;;;15.07;57.31;102597.16;5072801;28;20089;-63
2021/12/13 07:05:03;;;;;;;19.40;11.85;;;;;;;15.26;57.15;102605.53;5074158;28;20024;-63
2021/12/13 07:07:45;;;;;;;19.55;11.60;;;;;;;14.87;58.05;102604.53;5073869;28;20516;-63
2021/12/13 07:10:17;;;;;;;22.85;12.48;;;;;;;14.97;57.66;102611.88;5073668;28;20103;-62
2021/12/13 07:12:50;;;;;;;24.23;12.40;;;;;;;15.74;55.59;102605.53;5073789;28;20029;-62
2021/12/13 07:15:47;;;;;;;21.13;12.93;;;;;;;15.18;57.21;102611.69;5073519;28;20063;-62
2021/12/13 07:18:28;;;;;;;23.13;12.82;;;;;;;14.65;59.18;102620.69;5073205;28;20032;-66
2021/12/13 07:21:39;;;;;;;19.65;11.88;;;;;;;15.13;57.43;102612.56;5071686;28;20024;-62
2021/12/13 07:24:09;;;;;;;24.50;12.73;;;;;;;15.00;57.54;102611.31;5071030;28;20056;-62
2021/12/13 07:26:52;;;;;;;23.60;12.60;;;;;;;15.21;56.76;102619.41;5073479;28;20081;-62
2021/12/13 07:29:27;;;;;;;20.50;11.77;;;;;;;15.26;57.17;102621.28;5072474;28;20025;-63
2021/12/13 07:32:11;;;;;;;24.50;12.57;;;;;;;14.63;58.05;102626.50;5073183;28;20025;-62
2021/12/13 07:35:06;;;;;;;22.38;12.63;;;;;;;14.76;58.34;102636.09;5072478;28;20033;-65
2021/12/13 07:37:43;;;;;;;22.60;12.82;;;;;;;14.88;57.98;102638.47;5072265;28;20032;-65
2021/12/13 07:40:38;;;;;;;24.55;13.18;;;;;;;14.84;58.15;102635.47;5072077;28;20060;-64
2021/12/13 07:43:07;;;;;;;25.27;13.05;;;;;;;14.52;59.36;102635.94;5068902;28;20064;-62
2021/12/13 07:45:40;;;;;;;23.50;13.05;;;;;;;14.90;58.27;102644.50;5073663;28;20029;-63
2021/12/13 07:48:26;;;;;;;24.33;13.73;;;;;;;14.92;58.16;102639.56;5087961;28;20053;-61
2021/12/13 07:51:03;;;;;;;25.80;13.48;;;;;;;15.16;57.68;102644.28;5085884;28;20028;-64
2021/12/13 07:53:37;;;;;;;;;;;;;;;14.83;58.30;102646.81;5082799;28;20098;-62
2021/12/13 21:20:48;;;;;;;21.08;11.73;;;;;;;15.57;51.49;102732.34;5645948;23;20057;-61
2021/12/13 21:23:22;;;;;;;18.55;11.13;;;;;;;16.22;50.03;102728.34;4958362;29;20051;-64
2021/12/13 21:25:57;;;;;;;19.17;11.77;;;;;;;16.41;49.13;102739.44;4974330;29;20019;-63
2021/12/13 21:28:32;;;;;;;18.35;11.55;;;;;;;16.00;50.41;102735.22;4974385;29;20034;-62
2021/12/13 21:30:57;;;;;;;18.48;10.90;;;;;;;15.53;51.33;102732.09;4979979;28;20026;-63
2021/12/13 21:33:26;;;;;;;16.50;11.18;;;;;;;15.23;52.66;102752.53;4994329;28;20086;-67
2021/12/13 21:39:18;;;;;;;18.92;11.57;;;;;;;16.38;49.60;102746.41;4983398;28;20043;-60
2021/12/13 21:42:07;;;;;;;19.88;11.82;;;;;;;16.06;50.58;102739.59;4999780;28;20053;-62
2021/12/13 21:44:49;;;;;;;19.70;12.15;;;;;;;16.44;49.50;102744.41;4984357;28;20050;-64
2021/12/13 21:47:36;;;;;;;19.77;11.50;;;;;;;15.57;51.45;102757.22;4994938;28;20044;-61
2021/12/13 21:50:21;;;;;;;19.85;13.15;;;;;;;14.57;54.35;102759.28;4995539;28;20026;-65
2021/12/13 21:53:07;;;;;;;21.20;12.00;;;;;;;15.27;53.19;102761.91;4973146;28;20030;-63
2021/12/13 21:55:47;;;;;;;19.73;11.93;;;;;;;15.58;51.98;102759.69;5000370;28;20046;-65
2021/12/13 21:58:18;;;;;;;19.13;11.90;;;;;;;14.90;54.15;102765.22;5002292;28;20018;-63
2021/12/13 22:01:25;;;;;;;19.42;11.38;;;;;;;15.53;52.48;102765.28;4980980;28;20026;-65
2021/12/13 22:03:53;;;;;;;;;;;;;;;15.15;53.37;102765.03;4936255;28;20057;-62
2021/12/13 22:06:19;;;;;;;19.42;11.80;;;;;;;14.87;54.24;102758.31;5017630;28;19917;-62
2021/12/13 22:08:52;;;;;;;18.75;11.77;;;;;;;14.55;55.29;102751.28;5015914;28;20073;-62
2021/12/13 22:11:24;;;;;;;19.15;12.20;;;;;;;14.64;55.14;102749.63;5026801;28;20033;-65
2021/12/13 22:14:21;;;;;;;22.55;13.05;;;;;;;14.85;55.03;102752.25;5020839;28;20022;-66
2021/12/13 22:16:50;;;;;;;;;;;;;;;14.63;55.66;102747.94;5014963;28;20030;-62
2021/12/13 22:19:35;;;;;;;20.45;13.07;;;;;;;14.30;56.97;102733.75;5021961;28;19921;-62
2021/12/13 22:22:04;;;;;;;22.48;14.15;;;;;;;13.74;58.60;102720.13;5014514;28;20050;-63
2021/12/13 22:24:34;;;;;;;23.75;14.10;;;;;;;13.61;59.08;102725.09;5012651;28;20088;-63
2021/12/13 22:27:08;;;;;;;24.17;14.25;;;;;;;15.05;55.33;102731.97;5018969;28;20085;-63
2021/12/13 22:29:34;;;;;;;25.60;14.07;;;;;;;14.51;56.34;102740.00;5014478;28;20033;-63
2021/12/13 22:32:04;;;;;;;24.70;14.95;;;;;;;13.79;58.70;102750.44;4997163;28;20996;-63
2021/12/13 22:34:39;;;;;;;25.33;15.40;;;;;;;14.49;57.10;102744.13;5004303;28;20034;-63
2021/12/13 22:37:06;;;;;;;24.10;15.30;;;;;;;14.30;57.92;102747.53;5003357;28;20018;-63
2021/12/13 22:39:32;;;;;;;29.88;17.08;;;;;;;13.52;59.73;102748.84;5018268;28;20029;-63
2021/12/13 22:42:01;;;;;;;26.73;17.08;;;;;;;13.55;59.78;102750.19;5003567;28;20029;-61
2021/12/13 22:44:31;;;;;;;29.27;16.65;;;;;;;13.86;59.12;102739.13;5019819;28;20027;-61
2021/12/13 22:47:10;;;;;;;27.20;15.98;;;;;;;14.23;57.71;102738.72;5020130;28;20022;-62
2021/12/13 22:49:46;;;;;;;28.45;17.15;;;;;;;14.04;58.60;102740.47;5009359;28;20016;-63
2021/12/13 22:52:21;;;;;;;28.27;17.05;;;;;;;14.25;58.26;102746.72;5019191;28;20058;-61
2021/12/13 22:54:48;;;;;;;30.65;17.52;;;;;;;13.75;59.72;102736.38;5018587;28;20042;-63
2021/12/13 22:57:13;;;;;;;28.30;17.48;;;;;;;14.64;57.04;102730.28;5014703;28;20057;-61
2021/12/13 22:59:46;;;;;;;30.17;16.55;;;;;;;13.99;58.34;102726.69;5020863;28;20215;-65
2021/12/13 23:02:16;;;;;;;27.02;16.67;;;;;;;14.05;58.31;102714.53;5024403;28;20077;-64
2021/12/13 23:04:49;;;;;;;29.30;17.63;;;;;;;13.48;60.35;102720.16;5001081;28;20084;-64
2021/12/13 23:07:18;;;;;;;27.75;16.63;;;;;;;13.65;59.43;102708.84;5009184;28;20783;-62
2021/12/13 23:10:12;;;;;;;30.38;18.40;;;;;;;14.03;58.41;102722.25;5022599;28;20022;-62
2021/12/13 23:15:28;;;;;;;28.88;17.88;;;;;;;14.06;58.27;102718.94;5014036;28;20065;-64
2021/12/13 23:17:55;;;;;;;28.23;17.27;;;;;;;14.21;57.74;102707.84;5013941;28;20038;-68
2021/12/13 23:20:23;;;;;;;30.20;17.80;;;;;;;14.18;57.75;102699.31;5014837;28;20054;-63
2021/12/13 23:22:50;;;;;;;31.67;17.75;;;;;;;13.97;58.58;102696.66;5014146;28;20030;-64
2021/12/13 23:25:20;;;;;;;30.55;18.45;;;;;;;13.99;58.94;102704.63;5014417;28;20026;-62
2021/12/13 23:27:46;;;;;;;28.42;18.33;;;;;;;14.39;57.57;102709.13;5014353;28;20038;-63
2021/12/13 23:30:37;;;;;;;32.72;19.40;;;;;;;13.87;58.99;102711.28;5014173;28;20023;-63
2021/12/13 23:33:08;;;;;;;28.98;18.30;;;;;;;13.72;59.82;102700.28;4995759;28;20061;-60
2021/12/13 23:35:46;;;;;;;30.70;17.60;;;;;;;13.42;59.82;102704.75;5012022;28;20110;-65
2021/12/13 23:38:22;;;;;;;30.40;18.23;;;;;;;14.07;58.58;102704.88;4996266;28;20034;-62
2021/12/13 23:46:25;;;;;;;31.13;18.38;;;;;;;14.31;57.40;102707.78;4993413;28;20033;-64
2021/12/13 23:48:51;;;;;;;31.33;19.25;;;;;;;14.43;56.93;102714.94;4964601;28;20026;-63
2021/12/13 23:51:20;;;;;;;30.13;19.10;;;;;;;14.02;57.95;102715.91;4996248;28;20030;-67
2021/12/13 23:53:47;;;;;;;32.22;19.35;;;;;;;13.83;58.67;102729.47;4996360;28;20069;-63
2021/12/13 23:56:16;;;;;;;32.15;18.80;;;;;;;14.45;56.65;102729.25;4996492;28;20030;-65
2021/12/13 23:58:48;;;;;;;33.42;18.73;;;;;;;14.15;57.89;102733.81;5013594;28;20046;-64
